createdAt,value
2022-12-03T00:02:56.835Z,84.47
2022-12-03T00:07:59.962Z,84.74
2022-12-03T00:13:03.121Z,84.68
2022-12-03T00:18:08.927Z,84.81
2022-12-03T00:23:11.799Z,84.75
2022-12-03T00:28:17.749Z,84.94
2022-12-03T00:33:22.067Z,85.21
2022-12-03T00:38:24.934Z,85.34
2022-12-03T00:43:28.003Z,85.53
2022-12-03T00:48:33.498Z,85.64
2022-12-03T00:53:39.146Z,85.86
2022-12-03T00:58:42.068Z,85.84
2022-12-03T01:03:45.065Z,85.82
2022-12-03T01:08:50.857Z,86.34
2022-12-03T01:13:56.756Z,86.54
2022-12-03T01:18:59.757Z,86.71
2022-12-03T01:24:03.771Z,86.74
2022-12-03T01:29:07.845Z,86.82
2022-12-03T01:34:11.171Z,87.13
2022-12-03T01:39:18.823Z,87.04
2022-12-03T01:44:34.434Z,87.28
2022-12-03T01:50:20.685Z,87.23
2022-12-03T01:55:26.055Z,87.20
2022-12-03T02:00:30.234Z,87.00
2022-12-03T02:05:34.477Z,86.70
2022-12-03T02:10:38.690Z,86.64
2022-12-03T02:15:41.682Z,86.60
2022-12-03T02:20:58.320Z,86.71
2022-12-03T02:26:01.292Z,86.78
2022-12-03T02:31:05.511Z,86.78
2022-12-03T02:36:09.455Z,86.60
2022-12-03T02:41:37.329Z,86.70
2022-12-03T02:46:40.691Z,86.87
2022-12-03T02:51:43.606Z,86.60
2022-12-03T02:56:46.523Z,86.40
2022-12-03T03:01:49.587Z,86.20
2022-12-03T03:06:53.103Z,86.45
2022-12-03T03:11:56.149Z,86.33
2022-12-03T03:16:59.269Z,86.11
2022-12-03T03:22:02.221Z,85.90
2022-12-03T03:27:06.279Z,85.67
2022-12-03T03:32:09.334Z,85.58
2022-12-03T03:37:12.530Z,85.64
2022-12-03T03:42:15.903Z,85.58
2022-12-03T03:47:20.326Z,85.32
2022-12-03T03:52:23.686Z,84.90
2022-12-03T03:57:26.876Z,85.13
2022-12-03T04:02:29.811Z,85.22
2022-12-03T04:07:32.798Z,84.89
2022-12-03T04:12:54.784Z,84.67
2022-12-03T04:18:16.972Z,84.94
2022-12-03T04:23:19.858Z,84.88
2022-12-03T04:28:41.722Z,84.79
2022-12-03T04:34:03.505Z,84.86
2022-12-03T04:39:06.579Z,85.04
2022-12-03T04:44:28.088Z,84.95
2022-12-03T04:49:32.188Z,85.01
2022-12-03T04:54:35.150Z,85.50
2022-12-03T04:59:38.849Z,85.68
2022-12-03T05:04:41.807Z,85.89
2022-12-03T05:09:44.752Z,86.11
2022-12-03T05:14:48.362Z,86.13
2022-12-03T05:20:10.207Z,86.29
2022-12-03T05:25:13.096Z,86.43
2022-12-03T05:30:16.340Z,86.39
2022-12-03T05:35:19.453Z,86.20
2022-12-03T05:40:22.890Z,86.12
2022-12-03T05:45:36.210Z,86.07
2022-12-03T05:50:43.348Z,85.94
2022-12-03T05:55:46.198Z,85.92
2022-12-03T06:00:49.100Z,85.77
2022-12-03T06:05:52.067Z,85.64
2022-12-03T06:10:55.015Z,85.79
2022-12-03T06:15:58.106Z,85.91
2022-12-03T06:21:01.018Z,85.75
2022-12-03T06:26:03.980Z,85.64
2022-12-03T06:31:07.297Z,85.60
2022-12-03T06:36:10.262Z,85.50
2022-12-03T06:41:13.122Z,85.24
2022-12-03T06:46:16.166Z,85.35
2022-12-03T06:51:19.106Z,85.29
2022-12-03T06:56:22.692Z,85.21
2022-12-03T07:01:26.205Z,85.15
2022-12-03T07:06:29.097Z,85.09
2022-12-03T07:11:32.047Z,85.09
2022-12-03T07:16:36.624Z,85.39
2022-12-03T07:21:39.798Z,85.46
2022-12-03T07:26:42.696Z,85.33
2022-12-03T07:31:45.801Z,85.40
2022-12-03T07:36:48.875Z,85.50
2022-12-03T07:41:51.865Z,85.43
2022-12-03T07:46:55.566Z,85.54
2022-12-03T07:51:58.642Z,85.71
2022-12-03T07:57:02.141Z,85.77
2022-12-03T08:02:05.492Z,86.07
2022-12-03T08:07:08.517Z,86.38
2022-12-03T08:12:20.650Z,86.24
2022-12-03T08:17:24.678Z,86.40
2022-12-03T08:22:27.639Z,86.64
2022-12-03T08:27:31.015Z,86.71
2022-12-03T08:32:33.892Z,86.53
2022-12-03T08:37:36.948Z,86.44
2022-12-03T08:42:43.126Z,86.54
2022-12-03T08:47:46.370Z,86.42
2022-12-03T08:52:49.824Z,86.46
2022-12-03T08:57:53.854Z,86.33
2022-12-03T09:03:00.973Z,86.14
2022-12-03T09:08:04.013Z,85.75
2022-12-03T09:13:07.110Z,85.89
2022-12-03T09:18:10.175Z,85.75
2022-12-03T09:23:13.065Z,85.84
2022-12-03T09:28:16.028Z,85.68
2022-12-03T09:33:19.015Z,85.88
2022-12-03T09:38:22.259Z,85.85
2022-12-03T09:43:49.381Z,85.78
2022-12-03T09:48:51.353Z,85.53
2022-12-03T09:53:54.342Z,85.51
2022-12-03T09:58:57.735Z,85.38
2022-12-03T10:04:02.167Z,85.22
2022-12-03T10:09:06.924Z,85.29
2022-12-03T10:14:14.732Z,84.93
2022-12-03T10:19:28.932Z,84.99
2022-12-03T10:24:35.472Z,85.05
2022-12-03T10:29:38.407Z,84.88
2022-12-03T10:34:42.716Z,84.54
2022-12-03T10:40:02.610Z,84.62
2022-12-03T10:45:08.545Z,84.81
2022-12-03T10:50:19.342Z,84.95
2022-12-03T10:55:22.357Z,84.59
2022-12-03T11:00:25.544Z,84.75
2022-12-03T11:05:28.629Z,84.61
2022-12-03T11:10:31.823Z,84.51
2022-12-03T11:15:45.515Z,84.51
2022-12-03T11:21:00.390Z,84.64
2022-12-03T11:26:03.281Z,84.74
2022-12-03T11:31:12.471Z,85.19
2022-12-03T11:36:16.839Z,85.55
2022-12-03T11:41:33.514Z,85.57
2022-12-03T11:46:36.623Z,85.44
2022-12-03T11:51:44.246Z,85.29
2022-12-03T11:56:50.146Z,85.71
2022-12-03T12:01:53.120Z,85.92
2022-12-03T12:06:56.118Z,86.00
2022-12-03T12:12:20.318Z,86.27
2022-12-03T12:17:37.193Z,86.49
2022-12-03T12:22:40.144Z,86.61
2022-12-03T12:27:45.697Z,86.57
2022-12-03T12:32:56.830Z,86.48
2022-12-03T12:38:11.027Z,86.31
2022-12-03T12:43:29.717Z,86.31
2022-12-03T12:48:35.549Z,86.38
2022-12-03T12:53:42.895Z,86.18
2022-12-03T12:58:46.389Z,85.97
2022-12-03T13:03:52.652Z,86.00
2022-12-03T13:08:57.133Z,86.03
2022-12-03T13:14:10.882Z,85.94
2022-12-03T13:19:43.331Z,85.26
2022-12-03T13:24:54.341Z,84.94
2022-12-03T13:30:02.915Z,85.14
2022-12-03T13:35:09.730Z,84.62
2022-12-03T13:40:28.280Z,84.53
2022-12-03T13:45:37.684Z,84.76
2022-12-03T13:50:46.188Z,84.45
2022-12-03T13:56:01.226Z,84.79
2022-12-03T14:01:04.184Z,84.90
2022-12-03T14:06:07.264Z,84.96
2022-12-03T14:11:31.213Z,84.95
2022-12-03T14:16:34.198Z,84.79
2022-12-03T14:21:37.512Z,84.86
2022-12-03T14:26:40.492Z,84.79
2022-12-03T14:31:43.430Z,84.74
2022-12-03T14:36:46.596Z,84.74
2022-12-03T14:42:08.534Z,84.78
2022-12-03T14:47:12.998Z,84.91
2022-12-03T14:52:16.144Z,84.96
2022-12-03T14:57:19.264Z,84.94
2022-12-03T15:02:22.249Z,85.04
2022-12-03T15:07:25.496Z,85.14
2022-12-03T15:12:28.458Z,85.35
2022-12-03T15:17:32.284Z,85.68
2022-12-03T15:22:35.411Z,86.02
2022-12-03T15:27:38.415Z,86.11
2022-12-03T15:32:41.435Z,86.08
2022-12-03T15:37:45.654Z,86.18
2022-12-03T15:42:48.973Z,86.13
2022-12-03T15:47:51.897Z,86.19
2022-12-03T15:52:55.517Z,86.25
2022-12-03T15:57:58.493Z,86.29
2022-12-03T16:03:01.531Z,86.32
2022-12-03T16:08:04.937Z,86.39
2022-12-03T16:13:08.039Z,86.42
2022-12-03T16:18:11.264Z,86.47
2022-12-03T16:23:14.201Z,86.56
2022-12-03T16:28:17.177Z,86.34
2022-12-03T16:33:25.665Z,86.23
2022-12-03T16:38:31.343Z,86.19
2022-12-03T16:43:36.033Z,86.31
2022-12-03T16:48:39.068Z,86.35
2022-12-03T16:53:42.588Z,86.32
2022-12-03T16:58:45.748Z,86.36
2022-12-03T17:03:48.902Z,86.42
2022-12-03T17:08:51.871Z,86.39
2022-12-03T17:13:54.794Z,86.42
2022-12-03T17:18:58.048Z,86.53
2022-12-03T17:24:01.199Z,86.64
2022-12-03T17:29:04.899Z,86.75
2022-12-03T17:34:08.187Z,86.78
2022-12-03T17:39:11.093Z,86.74
2022-12-03T17:44:19.456Z,86.71
2022-12-03T17:49:28.395Z,86.75
2022-12-03T17:55:01.879Z,86.79
2022-12-03T17:59:57.612Z,86.95
2022-12-03T18:05:00.611Z,86.93
2022-12-03T18:10:04.595Z,86.87
2022-12-03T18:15:09.127Z,86.86
2022-12-03T18:20:12.406Z,86.81
2022-12-03T18:25:15.434Z,86.79
2022-12-03T18:30:18.959Z,86.83
2022-12-03T18:35:22.143Z,86.76
2022-12-03T18:40:27.314Z,86.78
2022-12-03T18:45:30.288Z,86.79
2022-12-03T18:50:33.316Z,86.86
2022-12-03T18:55:36.648Z,87.17
2022-12-03T19:00:40.437Z,87.23
2022-12-03T19:05:43.649Z,87.27
2022-12-03T19:10:59.824Z,87.53
2022-12-03T19:16:06.046Z,87.94
2022-12-03T19:21:13.043Z,88.10
2022-12-03T19:26:16.132Z,88.11
2022-12-03T19:31:19.909Z,88.12
2022-12-03T19:36:29.505Z,88.11
2022-12-03T19:41:32.714Z,88.08
2022-12-03T19:46:35.698Z,88.08
2022-12-03T19:51:38.647Z,88.07
2022-12-03T19:56:41.642Z,88.16
2022-12-03T20:01:44.934Z,88.45
2022-12-03T20:06:48.451Z,88.36
2022-12-03T20:11:51.833Z,88.22
2022-12-03T20:16:55.166Z,88.39
2022-12-03T20:22:02.585Z,88.46
2022-12-03T20:27:06.397Z,88.62
2022-12-03T20:32:09.512Z,88.79
2022-12-03T20:37:12.702Z,88.79
2022-12-03T20:42:15.698Z,88.50
2022-12-03T20:47:19.567Z,88.46
2022-12-03T20:52:22.658Z,88.42
2022-12-03T20:57:25.641Z,88.32
2022-12-03T21:02:28.837Z,88.23
2022-12-03T21:07:32.053Z,88.32
2022-12-03T21:12:34.997Z,88.41
2022-12-03T21:17:38.407Z,88.64
2022-12-03T21:22:41.621Z,88.68
2022-12-03T21:27:44.794Z,88.72
2022-12-03T21:32:47.907Z,88.93
2022-12-03T21:37:51.740Z,88.96
2022-12-03T21:42:54.747Z,88.99
2022-12-03T21:47:57.876Z,89.14
2022-12-03T21:53:00.964Z,89.28
2022-12-03T21:58:03.908Z,89.24
2022-12-03T22:03:06.930Z,89.27
2022-12-03T22:08:10.101Z,89.45
2022-12-03T22:13:13.084Z,89.46
2022-12-03T22:18:15.979Z,89.36
2022-12-03T22:23:18.963Z,89.14
2022-12-03T22:28:21.878Z,89.13
2022-12-03T22:33:25.183Z,89.07
2022-12-03T22:38:30.607Z,89.06
2022-12-03T22:43:34.320Z,88.99
2022-12-03T22:48:37.388Z,88.99
2022-12-03T22:53:40.536Z,89.10
2022-12-03T22:58:43.437Z,89.18
2022-12-03T23:03:46.369Z,89.21
2022-12-03T23:08:50.458Z,89.35
2022-12-03T23:13:54.306Z,89.50
2022-12-03T23:19:02.224Z,89.40
2022-12-03T23:24:06.314Z,89.36
2022-12-03T23:29:09.325Z,89.36
2022-12-03T23:34:12.336Z,89.47
2022-12-03T23:39:15.439Z,89.76
2022-12-03T23:44:18.927Z,89.88
2022-12-03T23:49:21.854Z,89.98
2022-12-03T23:54:24.928Z,90.15
2022-12-03T23:59:27.915Z,90.29
